sensor_id;sensor_type;location;lat;lon;timestamp;pressure;altitude;pressure_sealevel;temperature
70668;BMP280;58242;51.250;-1.118;2024-01-25T00:02:21;101648.13;;;12.50
70668;BMP280;58242;51.250;-1.118;2024-01-25T00:04:46;101649.81;;;12.47
70668;BMP280;58242;51.250;-1.118;2024-01-25T00:07:12;101647.22;;;12.42
70668;BMP280;58242;51.250;-1.118;2024-01-25T00:09:37;101650.78;;;12.37
70668;BMP280;58242;51.250;-1.118;2024-01-25T00:12:03;101649.00;;;12.33
70668;BMP280;58242;51.250;-1.118;2024-01-25T00:14:28;101642.94;;;12.28
70668;BMP280;58242;51.250;-1.118;2024-01-25T00:16:54;101647.31;;;12.24
70668;BMP280;58242;51.250;-1.118;2024-01-25T00:19:19;101642.56;;;12.21
70668;BMP280;58242;51.250;-1.118;2024-01-25T00:21:44;101634.78;;;12.19
70668;BMP280;58242;51.250;-1.118;2024-01-25T00:24:13;101639.34;;;12.19
70668;BMP280;58242;51.250;-1.118;2024-01-25T00:26:39;101639.34;;;12.19
70668;BMP280;58242;51.250;-1.118;2024-01-25T00:29:04;101638.75;;;12.22
70668;BMP280;58242;51.250;-1.118;2024-01-25T00:31:30;101636.78;;;12.27
70668;BMP280;58242;51.250;-1.118;2024-01-25T00:33:57;101643.94;;;12.31
70668;BMP280;58242;51.250;-1.118;2024-01-25T00:36:23;101638.47;;;12.36
70668;BMP280;58242;51.250;-1.118;2024-01-25T00:38:49;101636.00;;;12.40
70668;BMP280;58242;51.250;-1.118;2024-01-25T00:41:17;101628.63;;;12.45
70668;BMP280;58242;51.250;-1.118;2024-01-25T00:43:43;101629.63;;;12.49
70668;BMP280;58242;51.250;-1.118;2024-01-25T00:46:09;101633.31;;;12.53
70668;BMP280;58242;51.250;-1.118;2024-01-25T00:48:34;101626.84;;;12.54
70668;BMP280;58242;51.250;-1.118;2024-01-25T00:51:00;101628.13;;;12.56
70668;BMP280;58242;51.250;-1.118;2024-01-25T00:53:26;101633.72;;;12.60
70668;BMP280;58242;51.250;-1.118;2024-01-25T00:55:52;101619.22;;;12.61
70668;BMP280;58242;51.250;-1.118;2024-01-25T00:58:17;101615.75;;;12.60
70668;BMP280;58242;51.250;-1.118;2024-01-25T01:00:43;101613.06;;;12.60
70668;BMP280;58242;51.250;-1.118;2024-01-25T01:03:09;101610.94;;;12.57
70668;BMP280;58242;51.250;-1.118;2024-01-25T01:05:35;101616.13;;;12.54
70668;BMP280;58242;51.250;-1.118;2024-01-25T01:08:01;101605.19;;;12.50
70668;BMP280;58242;51.250;-1.118;2024-01-25T01:10:27;101600.41;;;12.48
70668;BMP280;58242;51.250;-1.118;2024-01-25T01:12:52;101610.38;;;12.47
70668;BMP280;58242;51.250;-1.118;2024-01-25T01:15:19;101614.13;;;12.46
70668;BMP280;58242;51.250;-1.118;2024-01-25T01:17:44;101611.47;;;12.46
70668;BMP280;58242;51.250;-1.118;2024-01-25T01:20:10;101607.09;;;12.50
70668;BMP280;58242;51.250;-1.118;2024-01-25T01:22:35;101596.84;;;12.52
70668;BMP280;58242;51.250;-1.118;2024-01-25T01:25:01;101594.06;;;12.57
70668;BMP280;58242;51.250;-1.118;2024-01-25T01:27:26;101588.63;;;12.62
70668;BMP280;58242;51.250;-1.118;2024-01-25T01:29:51;101591.97;;;12.67
70668;BMP280;58242;51.250;-1.118;2024-01-25T01:32:17;101590.00;;;12.72
70668;BMP280;58242;51.250;-1.118;2024-01-25T01:34:42;101582.94;;;12.76
70668;BMP280;58242;51.250;-1.118;2024-01-25T01:37:07;101580.16;;;12.81
70668;BMP280;58242;51.250;-1.118;2024-01-25T01:39:33;101568.47;;;12.85
70668;BMP280;58242;51.250;-1.118;2024-01-25T01:41:58;101570.25;;;12.90
70668;BMP280;58242;51.250;-1.118;2024-01-25T01:44:23;101567.75;;;12.93
70668;BMP280;58242;51.250;-1.118;2024-01-25T01:46:49;101567.94;;;12.97
70668;BMP280;58242;51.250;-1.118;2024-01-25T01:49:14;101572.72;;;13.00
70668;BMP280;58242;51.250;-1.118;2024-01-25T01:51:41;101562.97;;;13.03
70668;BMP280;58242;51.250;-1.118;2024-01-25T01:54:08;101557.78;;;13.07
70668;BMP280;58242;51.250;-1.118;2024-01-25T01:56:34;101553.69;;;13.09
70668;BMP280;58242;51.250;-1.118;2024-01-25T01:59:01;101551.19;;;13.13
70668;BMP280;58242;51.250;-1.118;2024-01-25T02:01:28;101542.84;;;13.14
70668;BMP280;58242;51.250;-1.118;2024-01-25T02:03:53;101532.88;;;13.15
70668;BMP280;58242;51.250;-1.118;2024-01-25T02:06:19;101526.22;;;13.12
70668;BMP280;58242;51.250;-1.118;2024-01-25T02:08:47;101515.81;;;13.11
70668;BMP280;58242;51.250;-1.118;2024-01-25T02:11:13;101520.66;;;13.09
70668;BMP280;58242;51.250;-1.118;2024-01-25T02:13:38;101522.09;;;13.06
70668;BMP280;58242;51.250;-1.118;2024-01-25T02:16:05;101528.53;;;13.05
70668;BMP280;58242;51.250;-1.118;2024-01-25T02:18:32;101526.19;;;13.04
70668;BMP280;58242;51.250;-1.118;2024-01-25T02:20:58;101528.06;;;13.03
70668;BMP280;58242;51.250;-1.118;2024-01-25T02:23:23;101519.84;;;13.00
70668;BMP280;58242;51.250;-1.118;2024-01-25T02:25:48;101520.13;;;12.99
70668;BMP280;58242;51.250;-1.118;2024-01-25T02:28:14;101510.81;;;12.96
70668;BMP280;58242;51.250;-1.118;2024-01-25T02:30:39;101521.03;;;12.94
70668;BMP280;58242;51.250;-1.118;2024-01-25T02:33:04;101524.34;;;12.91
70668;BMP280;58242;51.250;-1.118;2024-01-25T02:35:30;101521.47;;;12.88
70668;BMP280;58242;51.250;-1.118;2024-01-25T02:37:55;101515.59;;;12.86
70668;BMP280;58242;51.250;-1.118;2024-01-25T02:40:20;101517.28;;;12.82
70668;BMP280;58242;51.250;-1.118;2024-01-25T02:42:46;101510.38;;;12.81
70668;BMP280;58242;51.250;-1.118;2024-01-25T02:45:11;101501.81;;;12.79
70668;BMP280;58242;51.250;-1.118;2024-01-25T02:47:36;101507.16;;;12.79
70668;BMP280;58242;51.250;-1.118;2024-01-25T02:50:02;101500.22;;;12.78
70668;BMP280;58242;51.250;-1.118;2024-01-25T02:52:27;101504.00;;;12.77
70668;BMP280;58242;51.250;-1.118;2024-01-25T02:54:53;101502.91;;;12.78
70668;BMP280;58242;51.250;-1.118;2024-01-25T02:57:18;101499.41;;;12.78
70668;BMP280;58242;51.250;-1.118;2024-01-25T02:59:43;101495.16;;;12.77
70668;BMP280;58242;51.250;-1.118;2024-01-25T03:02:09;101485.22;;;12.77
70668;BMP280;58242;51.250;-1.118;2024-01-25T03:04:34;101480.34;;;12.79
70668;BMP280;58242;51.250;-1.118;2024-01-25T03:07:00;101483.19;;;12.82
70668;BMP280;58242;51.250;-1.118;2024-01-25T03:09:25;101466.19;;;12.87
70668;BMP280;58242;51.250;-1.118;2024-01-25T03:11:50;101460.72;;;12.92
70668;BMP280;58242;51.250;-1.118;2024-01-25T03:14:16;101445.56;;;12.96
70668;BMP280;58242;51.250;-1.118;2024-01-25T03:16:41;101443.25;;;13.02
70668;BMP280;58242;51.250;-1.118;2024-01-25T03:19:06;101440.44;;;13.07
70668;BMP280;58242;51.250;-1.118;2024-01-25T03:21:32;101443.78;;;13.13
70668;BMP280;58242;51.250;-1.118;2024-01-25T03:23:57;101446.63;;;13.16
70668;BMP280;58242;51.250;-1.118;2024-01-25T03:26:22;101428.81;;;13.20
70668;BMP280;58242;51.250;-1.118;2024-01-25T03:28:48;101434.06;;;13.25
70668;BMP280;58242;51.250;-1.118;2024-01-25T03:31:13;101425.88;;;13.30
70668;BMP280;58242;51.250;-1.118;2024-01-25T03:33:38;101422.28;;;13.34
70668;BMP280;58242;51.250;-1.118;2024-01-25T03:36:05;101435.25;;;13.40
70668;BMP280;58242;51.250;-1.118;2024-01-25T03:38:31;101435.59;;;13.47
70668;BMP280;58242;51.250;-1.118;2024-01-25T03:40:56;101421.69;;;13.53
70668;BMP280;58242;51.250;-1.118;2024-01-25T03:43:23;101420.94;;;13.61
70668;BMP280;58242;51.250;-1.118;2024-01-25T03:45:49;101415.94;;;13.68
70668;BMP280;58242;51.250;-1.118;2024-01-25T03:48:15;101417.06;;;13.75
70668;BMP280;58242;51.250;-1.118;2024-01-25T03:50:40;101416.63;;;13.82
70668;BMP280;58242;51.250;-1.118;2024-01-25T03:53:06;101418.53;;;13.89
70668;BMP280;58242;51.250;-1.118;2024-01-25T03:55:32;101424.25;;;13.96
70668;BMP280;58242;51.250;-1.118;2024-01-25T03:57:57;101418.72;;;14.01
70668;BMP280;58242;51.250;-1.118;2024-01-25T04:00:22;101408.13;;;14.04
70668;BMP280;58242;51.250;-1.118;2024-01-25T04:02:48;101413.97;;;14.06
70668;BMP280;58242;51.250;-1.118;2024-01-25T04:05:13;101412.59;;;14.09
70668;BMP280;58242;51.250;-1.118;2024-01-25T04:07:39;101398.81;;;14.10
70668;BMP280;58242;51.250;-1.118;2024-01-25T04:10:05;101393.13;;;14.12
70668;BMP280;58242;51.250;-1.118;2024-01-25T04:12:31;101394.22;;;14.11
70668;BMP280;58242;51.250;-1.118;2024-01-25T04:14:57;101392.31;;;14.11
70668;BMP280;58242;51.250;-1.118;2024-01-25T04:17:23;101387.25;;;14.10
70668;BMP280;58242;51.250;-1.118;2024-01-25T04:19:48;101374.94;;;14.09
70668;BMP280;58242;51.250;-1.118;2024-01-25T04:22:14;101373.03;;;14.09
70668;BMP280;58242;51.250;-1.118;2024-01-25T04:24:39;101368.75;;;14.08
70668;BMP280;58242;51.250;-1.118;2024-01-25T04:27:04;101363.38;;;14.08
70668;BMP280;58242;51.250;-1.118;2024-01-25T04:29:30;101361.47;;;14.09
70668;BMP280;58242;51.250;-1.118;2024-01-25T04:31:56;101359.59;;;14.09
70668;BMP280;58242;51.250;-1.118;2024-01-25T04:34:21;101353.09;;;14.10
70668;BMP280;58242;51.250;-1.118;2024-01-25T04:36:47;101355.78;;;14.10
70668;BMP280;58242;51.250;-1.118;2024-01-25T04:39:12;101349.59;;;14.10
70668;BMP280;58242;51.250;-1.118;2024-01-25T04:41:37;101350.38;;;14.10
70668;BMP280;58242;51.250;-1.118;2024-01-25T04:44:03;101354.22;;;14.09
70668;BMP280;58242;51.250;-1.118;2024-01-25T04:46:29;101352.28;;;14.10
70668;BMP280;58242;51.250;-1.118;2024-01-25T04:49:00;101355.78;;;14.10
70668;BMP280;58242;51.250;-1.118;2024-01-25T04:51:25;101337.44;;;14.12
70668;BMP280;58242;51.250;-1.118;2024-01-25T04:53:51;101342.19;;;14.15
70668;BMP280;58242;51.250;-1.118;2024-01-25T04:56:16;101341.53;;;14.18
70668;BMP280;58242;51.250;-1.118;2024-01-25T04:58:41;101327.44;;;14.21
70668;BMP280;58242;51.250;-1.118;2024-01-25T05:01:07;101318.78;;;14.24
70668;BMP280;58242;51.250;-1.118;2024-01-25T05:03:33;101316.53;;;14.26
70668;BMP280;58242;51.250;-1.118;2024-01-25T05:05:58;101333.47;;;14.26
70668;BMP280;58242;51.250;-1.118;2024-01-25T05:08:23;101319.22;;;14.26
70668;BMP280;58242;51.250;-1.118;2024-01-25T05:10:49;101324.16;;;14.24
70668;BMP280;58242;51.250;-1.118;2024-01-25T05:13:14;101324.44;;;14.22
70668;BMP280;58242;51.250;-1.118;2024-01-25T05:15:40;101330.94;;;14.21
70668;BMP280;58242;51.250;-1.118;2024-01-25T05:18:06;101329.84;;;14.22
70668;BMP280;58242;51.250;-1.118;2024-01-25T05:20:31;101330.31;;;14.24
70668;BMP280;58242;51.250;-1.118;2024-01-25T05:23:04;101323.19;;;14.28
70668;BMP280;58242;51.250;-1.118;2024-01-25T05:25:30;101325.56;;;14.30
70668;BMP280;58242;51.250;-1.118;2024-01-25T05:27:58;101308.78;;;14.33
70668;BMP280;58242;51.250;-1.118;2024-01-25T05:30:24;101313.53;;;14.36
70668;BMP280;58242;51.250;-1.118;2024-01-25T05:32:50;101311.78;;;14.39
70668;BMP280;58242;51.250;-1.118;2024-01-25T05:35:16;101304.97;;;14.42
70668;BMP280;58242;51.250;-1.118;2024-01-25T05:37:42;101293.91;;;14.43
70668;BMP280;58242;51.250;-1.118;2024-01-25T05:40:08;101290.56;;;14.46
70668;BMP280;58242;51.250;-1.118;2024-01-25T05:42:34;101291.38;;;14.47
70668;BMP280;58242;51.250;-1.118;2024-01-25T05:45:00;101294.81;;;14.47
70668;BMP280;58242;51.250;-1.118;2024-01-25T05:47:25;101301.78;;;14.48
70668;BMP280;58242;51.250;-1.118;2024-01-25T05:49:51;101286.75;;;14.47
70668;BMP280;58242;51.250;-1.118;2024-01-25T05:52:16;101282.97;;;14.48
70668;BMP280;58242;51.250;-1.118;2024-01-25T05:54:42;101290.72;;;14.50
70668;BMP280;58242;51.250;-1.118;2024-01-25T05:57:09;101291.81;;;14.49
70668;BMP280;58242;51.250;-1.118;2024-01-25T05:59:34;101283.75;;;14.49
70668;BMP280;58242;51.250;-1.118;2024-01-25T06:01:59;101283.91;;;14.52
70668;BMP280;58242;51.250;-1.118;2024-01-25T06:04:25;101292.47;;;14.54
70668;BMP280;58242;51.250;-1.118;2024-01-25T06:06:50;101295.94;;;14.54
70668;BMP280;58242;51.250;-1.118;2024-01-25T06:09:15;101297.66;;;14.59
70668;BMP280;58242;51.250;-1.118;2024-01-25T06:11:41;101297.03;;;14.62
70668;BMP280;58242;51.250;-1.118;2024-01-25T06:14:07;101289.09;;;14.65
70668;BMP280;58242;51.250;-1.118;2024-01-25T06:16:33;101300.00;;;14.69
70668;BMP280;58242;51.250;-1.118;2024-01-25T06:18:58;101295.09;;;14.71
70668;BMP280;58242;51.250;-1.118;2024-01-25T06:21:25;101289.41;;;14.72
70668;BMP280;58242;51.250;-1.118;2024-01-25T06:23:50;101277.53;;;14.73
70668;BMP280;58242;51.250;-1.118;2024-01-25T06:26:16;101280.22;;;14.73
70668;BMP280;58242;51.250;-1.118;2024-01-25T06:28:41;101269.44;;;14.73
70668;BMP280;58242;51.250;-1.118;2024-01-25T06:31:06;101267.56;;;14.73
70668;BMP280;58242;51.250;-1.118;2024-01-25T06:33:32;101256.28;;;14.71
70668;BMP280;58242;51.250;-1.118;2024-01-25T06:35:57;101252.03;;;14.71
70668;BMP280;58242;51.250;-1.118;2024-01-25T06:38:23;101280.22;;;14.73
70668;BMP280;58242;51.250;-1.118;2024-01-25T06:40:48;101268.31;;;14.74
70668;BMP280;58242;51.250;-1.118;2024-01-25T06:43:14;101271.16;;;14.77
70668;BMP280;58242;51.250;-1.118;2024-01-25T06:45:39;101267.50;;;14.82
70668;BMP280;58242;51.250;-1.118;2024-01-25T06:48:07;101271.78;;;14.83
70668;BMP280;58242;51.250;-1.118;2024-01-25T06:50:36;101267.63;;;14.85
70668;BMP280;58242;51.250;-1.118;2024-01-25T06:53:02;101276.19;;;14.87
70668;BMP280;58242;51.250;-1.118;2024-01-25T06:55:27;101282.56;;;14.91
70668;BMP280;58242;51.250;-1.118;2024-01-25T06:57:52;101284.59;;;14.94
70668;BMP280;58242;51.250;-1.118;2024-01-25T07:00:18;101284.72;;;14.97
70668;BMP280;58242;51.250;-1.118;2024-01-25T07:02:46;101280.63;;;15.00
70668;BMP280;58242;51.250;-1.118;2024-01-25T07:05:11;101278.38;;;15.02
70668;BMP280;58242;51.250;-1.118;2024-01-25T07:07:36;101281.56;;;15.04
70668;BMP280;58242;51.250;-1.118;2024-01-25T07:10:04;101279.31;;;15.06
70668;BMP280;58242;51.250;-1.118;2024-01-25T07:12:30;101283.75;;;15.10
70668;BMP280;58242;51.250;-1.118;2024-01-25T07:14:55;101271.50;;;15.12
70668;BMP280;58242;51.250;-1.118;2024-01-25T07:17:20;101271.19;;;15.14
70668;BMP280;58242;51.250;-1.118;2024-01-25T07:19:46;101270.88;;;15.15
70668;BMP280;58242;51.250;-1.118;2024-01-25T07:22:11;101273.25;;;15.17
70668;BMP280;58242;51.250;-1.118;2024-01-25T07:24:39;101262.16;;;15.18
70668;BMP280;58242;51.250;-1.118;2024-01-25T07:27:04;101261.03;;;15.19
70668;BMP280;58242;51.250;-1.118;2024-01-25T07:29:30;101264.50;;;15.20
70668;BMP280;58242;51.250;-1.118;2024-01-25T07:31:55;101269.91;;;15.20
70668;BMP280;58242;51.250;-1.118;2024-01-25T07:34:20;101269.59;;;15.21
70668;BMP280;58242;51.250;-1.118;2024-01-25T07:36:46;101261.50;;;15.21
70668;BMP280;58242;51.250;-1.118;2024-01-25T07:39:11;101262.28;;;15.22
70668;BMP280;58242;51.250;-1.118;2024-01-25T07:41:37;101260.41;;;15.22
70668;BMP280;58242;51.250;-1.118;2024-01-25T07:44:02;101259.72;;;15.25
70668;BMP280;58242;51.250;-1.118;2024-01-25T07:46:27;101252.59;;;15.29
70668;BMP280;58242;51.250;-1.118;2024-01-25T07:48:53;101257.31;;;15.32
70668;BMP280;58242;51.250;-1.118;2024-01-25T07:51:18;101249.72;;;15.34
70668;BMP280;58242;51.250;-1.118;2024-01-25T07:53:43;101242.88;;;15.36
70668;BMP280;58242;51.250;-1.118;2024-01-25T07:56:09;101249.84;;;15.37
70668;BMP280;58242;51.250;-1.118;2024-01-25T07:58:36;101246.13;;;15.41
70668;BMP280;58242;51.250;-1.118;2024-01-25T08:01:04;101250.09;;;15.44
70668;BMP280;58242;51.250;-1.118;2024-01-25T08:03:31;101252.81;;;15.44
70668;BMP280;58242;51.250;-1.118;2024-01-25T08:05:57;101252.47;;;15.45
70668;BMP280;58242;51.250;-1.118;2024-01-25T08:08:22;101252.63;;;15.49
70668;BMP280;58242;51.250;-1.118;2024-01-25T08:10:47;101263.84;;;15.51
70668;BMP280;58242;51.250;-1.118;2024-01-25T08:13:13;101252.75;;;15.52
70668;BMP280;58242;51.250;-1.118;2024-01-25T08:15:38;101264.78;;;15.55
70668;BMP280;58242;51.250;-1.118;2024-01-25T08:18:04;101258.72;;;15.57
70668;BMP280;58242;51.250;-1.118;2024-01-25T08:20:30;101255.38;;;15.60
70668;BMP280;58242;51.250;-1.118;2024-01-25T08:22:56;101260.91;;;15.64
70668;BMP280;58242;51.250;-1.118;2024-01-25T08:25:21;101264.84;;;15.66
70668;BMP280;58242;51.250;-1.118;2024-01-25T08:27:47;101258.00;;;15.69
70668;BMP280;58242;51.250;-1.118;2024-01-25T08:30:12;101257.81;;;15.74
70668;BMP280;58242;51.250;-1.118;2024-01-25T08:32:37;101262.56;;;15.76
70668;BMP280;58242;51.250;-1.118;2024-01-25T08:35:03;101264.59;;;15.79
70668;BMP280;58242;51.250;-1.118;2024-01-25T08:37:29;101258.22;;;15.84
70668;BMP280;58242;51.250;-1.118;2024-01-25T08:39:54;101264.06;;;15.86
70668;BMP280;58242;51.250;-1.118;2024-01-25T08:42:20;101262.63;;;15.88
70668;BMP280;58242;51.250;-1.118;2024-01-25T08:44:46;101258.97;;;15.92
70668;BMP280;58242;51.250;-1.118;2024-01-25T08:47:17;101265.59;;;15.95
70668;BMP280;58242;51.250;-1.118;2024-01-25T08:49:43;101249.09;;;15.96
70668;BMP280;58242;51.250;-1.118;2024-01-25T08:52:08;101251.91;;;16.00
70668;BMP280;58242;51.250;-1.118;2024-01-25T08:54:34;101245.41;;;16.01
70668;BMP280;58242;51.250;-1.118;2024-01-25T08:57:00;101236.19;;;16.02
70668;BMP280;58242;51.250;-1.118;2024-01-25T08:59:26;101232.50;;;16.06
70668;BMP280;58242;51.250;-1.118;2024-01-25T09:01:51;101228.69;;;16.07
70668;BMP280;58242;51.250;-1.118;2024-01-25T09:04:17;101231.50;;;16.10
70668;BMP280;58242;51.250;-1.118;2024-01-25T09:06:43;101237.38;;;16.12
70668;BMP280;58242;51.250;-1.118;2024-01-25T09:09:09;101234.81;;;16.16
70668;BMP280;58242;51.250;-1.118;2024-01-25T09:11:36;101237.63;;;16.19
70668;BMP280;58242;51.250;-1.118;2024-01-25T09:14:01;101221.56;;;16.23
70668;BMP280;58242;51.250;-1.118;2024-01-25T09:16:26;101223.56;;;16.26
70668;BMP280;58242;51.250;-1.118;2024-01-25T09:18:52;101222.16;;;16.28
70668;BMP280;58242;51.250;-1.118;2024-01-25T09:21:17;101221.91;;;16.33
70668;BMP280;58242;51.250;-1.118;2024-01-25T09:23:42;101217.00;;;16.35
70668;BMP280;58242;51.250;-1.118;2024-01-25T09:26:08;101224.41;;;16.38
70668;BMP280;58242;51.250;-1.118;2024-01-25T09:28:34;101208.34;;;16.41
70668;BMP280;58242;51.250;-1.118;2024-01-25T09:30:59;101208.44;;;16.44
70668;BMP280;58242;51.250;-1.118;2024-01-25T09:33:24;101215.22;;;16.50
70668;BMP280;58242;51.250;-1.118;2024-01-25T09:35:50;101208.16;;;16.58
70668;BMP280;58242;51.250;-1.118;2024-01-25T09:38:15;101212.56;;;16.62
70668;BMP280;58242;51.250;-1.118;2024-01-25T09:40:41;101214.69;;;16.68
70668;BMP280;58242;51.250;-1.118;2024-01-25T09:43:06;101211.41;;;16.75
70668;BMP280;58242;51.250;-1.118;2024-01-25T09:45:33;101209.75;;;16.82
70668;BMP280;58242;51.250;-1.118;2024-01-25T09:48:00;101210.31;;;16.87
70668;BMP280;58242;51.250;-1.118;2024-01-25T09:50:25;101225.19;;;16.93
70668;BMP280;58242;51.250;-1.118;2024-01-25T09:52:54;101203.69;;;16.96
70668;BMP280;58242;51.250;-1.118;2024-01-25T09:55:24;101209.19;;;17.00
70668;BMP280;58242;51.250;-1.118;2024-01-25T09:57:53;101216.53;;;16.99
70668;BMP280;58242;51.250;-1.118;2024-01-25T10:00:19;101216.19;;;17.01
70668;BMP280;58242;51.250;-1.118;2024-01-25T10:02:47;101213.16;;;17.02
70668;BMP280;58242;51.250;-1.118;2024-01-25T10:05:14;101208.19;;;17.04
70668;BMP280;58242;51.250;-1.118;2024-01-25T10:07:43;101210.25;;;17.07
70668;BMP280;58242;51.250;-1.118;2024-01-25T10:10:10;101204.59;;;17.12
70668;BMP280;58242;51.250;-1.118;2024-01-25T10:12:40;101206.97;;;17.13
70668;BMP280;58242;51.250;-1.118;2024-01-25T10:15:06;101205.50;;;17.16
70668;BMP280;58242;51.250;-1.118;2024-01-25T10:17:32;101204.03;;;17.18
70668;BMP280;58242;51.250;-1.118;2024-01-25T10:19:57;101197.59;;;17.23
70668;BMP280;58242;51.250;-1.118;2024-01-25T10:22:24;101203.56;;;17.28
70668;BMP280;58242;51.250;-1.118;2024-01-25T10:24:49;101214.59;;;17.35
70668;BMP280;58242;51.250;-1.118;2024-01-25T10:27:19;101211.47;;;17.33
70668;BMP280;58242;51.250;-1.118;2024-01-25T10:29:44;101217.16;;;17.43
70668;BMP280;58242;51.250;-1.118;2024-01-25T10:32:09;101212.75;;;17.50
70668;BMP280;58242;51.250;-1.118;2024-01-25T10:34:36;101205.66;;;17.58
70668;BMP280;58242;51.250;-1.118;2024-01-25T10:37:05;101207.00;;;17.63
70668;BMP280;58242;51.250;-1.118;2024-01-25T10:39:31;101197.22;;;17.59
70668;BMP280;58242;51.250;-1.118;2024-01-25T10:41:58;101202.59;;;17.71
70668;BMP280;58242;51.250;-1.118;2024-01-25T10:44:24;101200.06;;;17.78
70668;BMP280;58242;51.250;-1.118;2024-01-25T10:46:49;101201.00;;;17.81
70668;BMP280;58242;51.250;-1.118;2024-01-25T10:49:16;101186.78;;;17.84
70668;BMP280;58242;51.250;-1.118;2024-01-25T10:51:43;101185.38;;;17.90
70668;BMP280;58242;51.250;-1.118;2024-01-25T10:54:10;101196.66;;;17.92
70668;BMP280;58242;51.250;-1.118;2024-01-25T10:56:36;101199.13;;;17.97
70668;BMP280;58242;51.250;-1.118;2024-01-25T10:59:02;101203.84;;;18.00
70668;BMP280;58242;51.250;-1.118;2024-01-25T11:01:28;101206.66;;;18.03
70668;BMP280;58242;51.250;-1.118;2024-01-25T11:03:54;101193.22;;;18.07
70668;BMP280;58242;51.250;-1.118;2024-01-25T11:06:21;101189.47;;;18.11
70668;BMP280;58242;51.250;-1.118;2024-01-25T11:08:48;101187.75;;;18.18
70668;BMP280;58242;51.250;-1.118;2024-01-25T11:11:14;101197.28;;;18.28
70668;BMP280;58242;51.250;-1.118;2024-01-25T11:13:44;101189.78;;;18.36
70668;BMP280;58242;51.250;-1.118;2024-01-25T11:16:28;101176.53;;;18.47
70668;BMP280;58242;51.250;-1.118;2024-01-25T11:18:55;101169.47;;;18.57
70668;BMP280;58242;51.250;-1.118;2024-01-25T11:21:45;101166.69;;;18.69
70668;BMP280;58242;51.250;-1.118;2024-01-25T11:24:20;101177.84;;;18.83
70668;BMP280;58242;51.250;-1.118;2024-01-25T11:26:46;101174.34;;;18.97
70668;BMP280;58242;51.250;-1.118;2024-01-25T11:29:19;101169.53;;;19.06
70668;BMP280;58242;51.250;-1.118;2024-01-25T11:31:47;101169.28;;;19.11
70668;BMP280;58242;51.250;-1.118;2024-01-25T11:34:13;101168.25;;;19.18
70668;BMP280;58242;51.250;-1.118;2024-01-25T11:36:40;101164.56;;;19.26
70668;BMP280;58242;51.250;-1.118;2024-01-25T11:39:08;101156.25;;;19.35
70668;BMP280;58242;51.250;-1.118;2024-01-25T11:41:34;101159.91;;;19.42
70668;BMP280;58242;51.250;-1.118;2024-01-25T11:44:01;101150.34;;;19.48
70668;BMP280;58242;51.250;-1.118;2024-01-25T11:46:28;101138.09;;;19.53
70668;BMP280;58242;51.250;-1.118;2024-01-25T11:48:55;101152.25;;;19.62
70668;BMP280;58242;51.250;-1.118;2024-01-25T11:51:20;101140.75;;;19.69
70668;BMP280;58242;51.250;-1.118;2024-01-25T11:53:46;101137.38;;;19.75
70668;BMP280;58242;51.250;-1.118;2024-01-25T11:56:21;101135.94;;;19.81
70668;BMP280;58242;51.250;-1.118;2024-01-25T11:58:47;101127.53;;;19.86
70668;BMP280;58242;51.250;-1.118;2024-01-25T12:01:13;101125.69;;;19.89
70668;BMP280;58242;51.250;-1.118;2024-01-25T12:03:40;101113.31;;;19.92
70668;BMP280;58242;51.250;-1.118;2024-01-25T12:06:06;101111.31;;;19.89
70668;BMP280;58242;51.250;-1.118;2024-01-25T12:08:34;101116.69;;;19.86
70668;BMP280;58242;51.250;-1.118;2024-01-25T12:11:08;101101.47;;;19.81
70668;BMP280;58242;51.250;-1.118;2024-01-25T12:13:42;101113.03;;;19.78
70668;BMP280;58242;51.250;-1.118;2024-01-25T12:16:09;101093.88;;;19.71
70668;BMP280;58242;51.250;-1.118;2024-01-25T12:18:34;101096.59;;;19.71
70668;BMP280;58242;51.250;-1.118;2024-01-25T12:21:04;101093.13;;;19.71
70668;BMP280;58242;51.250;-1.118;2024-01-25T12:23:34;101095.19;;;19.77
70668;BMP280;58242;51.250;-1.118;2024-01-25T12:26:04;101088.75;;;19.85
70668;BMP280;58242;51.250;-1.118;2024-01-25T12:28:30;101079.66;;;19.96
70668;BMP280;58242;51.250;-1.118;2024-01-25T12:30:56;101076.72;;;20.04
70668;BMP280;58242;51.250;-1.118;2024-01-25T12:33:22;101079.94;;;20.13
70668;BMP280;58242;51.250;-1.118;2024-01-25T12:35:47;101069.25;;;20.20
70668;BMP280;58242;51.250;-1.118;2024-01-25T12:38:12;101074.72;;;20.23
70668;BMP280;58242;51.250;-1.118;2024-01-25T12:40:38;101071.28;;;20.26
70668;BMP280;58242;51.250;-1.118;2024-01-25T12:43:04;101084.84;;;20.26
70668;BMP280;58242;51.250;-1.118;2024-01-25T12:45:29;101074.78;;;20.27
70668;BMP280;58242;51.250;-1.118;2024-01-25T12:47:54;101071.56;;;20.21
70668;BMP280;58242;51.250;-1.118;2024-01-25T12:50:20;101069.88;;;20.14
70668;BMP280;58242;51.250;-1.118;2024-01-25T12:52:45;101065.91;;;20.08
70668;BMP280;58242;51.250;-1.118;2024-01-25T12:55:11;101077.50;;;20.05
70668;BMP280;58242;51.250;-1.118;2024-01-25T12:57:36;101068.06;;;19.99
70668;BMP280;58242;51.250;-1.118;2024-01-25T13:00:02;101061.78;;;19.95
70668;BMP280;58242;51.250;-1.118;2024-01-25T13:02:27;101068.69;;;19.89
70668;BMP280;58242;51.250;-1.118;2024-01-25T13:04:53;101070.09;;;19.84
70668;BMP280;58242;51.250;-1.118;2024-01-25T13:07:18;101073.53;;;19.81
70668;BMP280;58242;51.250;-1.118;2024-01-25T13:09:43;101069.13;;;19.73
70668;BMP280;58242;51.250;-1.118;2024-01-25T13:12:09;101077.19;;;19.70
70668;BMP280;58242;51.250;-1.118;2024-01-25T13:14:34;101077.94;;;19.67
70668;BMP280;58242;51.250;-1.118;2024-01-25T13:16:59;101072.00;;;19.61
70668;BMP280;58242;51.250;-1.118;2024-01-25T13:19:25;101064.19;;;19.60
70668;BMP280;58242;51.250;-1.118;2024-01-25T13:21:50;101068.88;;;19.59
70668;BMP280;58242;51.250;-1.118;2024-01-25T13:24:15;101064.56;;;19.58
70668;BMP280;58242;51.250;-1.118;2024-01-25T13:26:41;101072.72;;;19.58
70668;BMP280;58242;51.250;-1.118;2024-01-25T13:29:06;101063.06;;;19.61
70668;BMP280;58242;51.250;-1.118;2024-01-25T13:31:31;101062.34;;;19.64
70668;BMP280;58242;51.250;-1.118;2024-01-25T13:33:57;101044.19;;;19.68
70668;BMP280;58242;51.250;-1.118;2024-01-25T13:36:22;101044.28;;;19.71
70668;BMP280;58242;51.250;-1.118;2024-01-25T13:38:48;101035.03;;;19.75